sensor_id;sensor_type;location;lat;lon;timestamp;temperature;humidity
12588;DHT22;6359;51.450;7.346;2023-04-26T00:00:41;0.50;99.90
12588;DHT22;6359;51.450;7.346;2023-04-26T00:03:08;0.60;99.90
12588;DHT22;6359;51.450;7.346;2023-04-26T00:05:37;0.50;99.90
12588;DHT22;6359;51.450;7.346;2023-04-26T00:08:04;0.60;99.90
12588;DHT22;6359;51.450;7.346;2023-04-26T00:10:31;0.60;99.90
12588;DHT22;6359;51.450;7.346;2023-04-26T00:12:58;0.60;99.90
12588;DHT22;6359;51.450;7.346;2023-04-26T00:15:26;0.50;99.90
12588;DHT22;6359;51.450;7.346;2023-04-26T00:17:53;0.40;99.90
12588;DHT22;6359;51.450;7.346;2023-04-26T00:20:20;0.30;99.90
12588;DHT22;6359;51.450;7.346;2023-04-26T00:22:47;0.30;99.90
12588;DHT22;6359;51.450;7.346;2023-04-26T00:25:14;0.20;99.90
12588;DHT22;6359;51.450;7.346;2023-04-26T00:27:41;0.10;99.90
12588;DHT22;6359;51.450;7.346;2023-04-26T00:30:08;0.00;99.90
12588;DHT22;6359;51.450;7.346;2023-04-26T00:32:37;0.00;99.90
12588;DHT22;6359;51.450;7.346;2023-04-26T00:35:04;0.00;99.90
12588;DHT22;6359;51.450;7.346;2023-04-26T00:37:32;0.00;99.90
12588;DHT22;6359;51.450;7.346;2023-04-26T00:39:59;0.00;99.90
12588;DHT22;6359;51.450;7.346;2023-04-26T00:42:26;0.10;99.90
12588;DHT22;6359;51.450;7.346;2023-04-26T00:44:53;0.10;99.90
12588;DHT22;6359;51.450;7.346;2023-04-26T00:47:22;0.00;99.90
12588;DHT22;6359;51.450;7.346;2023-04-26T00:49:51;0.00;99.90
12588;DHT22;6359;51.450;7.346;2023-04-26T00:52:18;-0.10;99.90
12588;DHT22;6359;51.450;7.346;2023-04-26T00:54:45;-0.10;99.90
12588;DHT22;6359;51.450;7.346;2023-04-26T00:57:12;-0.20;99.90
12588;DHT22;6359;51.450;7.346;2023-04-26T00:59:39;-0.20;99.90
12588;DHT22;6359;51.450;7.346;2023-04-26T01:02:06;-0.20;99.90
12588;DHT22;6359;51.450;7.346;2023-04-26T01:04:33;-0.20;99.90
12588;DHT22;6359;51.450;7.346;2023-04-26T01:07:03;-0.20;99.90
12588;DHT22;6359;51.450;7.346;2023-04-26T01:09:31;-0.20;99.90
12588;DHT22;6359;51.450;7.346;2023-04-26T01:11:58;-0.30;99.90
12588;DHT22;6359;51.450;7.346;2023-04-26T01:14:26;-0.30;99.90
12588;DHT22;6359;51.450;7.346;2023-04-26T01:16:53;-0.30;99.90
12588;DHT22;6359;51.450;7.346;2023-04-26T01:19:20;-0.40;99.90
12588;DHT22;6359;51.450;7.346;2023-04-26T01:21:48;-0.40;99.90
12588;DHT22;6359;51.450;7.346;2023-04-26T01:24:16;-0.50;99.90
12588;DHT22;6359;51.450;7.346;2023-04-26T01:26:43;-0.50;99.90
12588;DHT22;6359;51.450;7.346;2023-04-26T01:29:15;-0.50;99.90
12588;DHT22;6359;51.450;7.346;2023-04-26T01:31:42;-0.50;99.90
12588;DHT22;6359;51.450;7.346;2023-04-26T01:34:09;-0.60;99.90
12588;DHT22;6359;51.450;7.346;2023-04-26T01:36:36;-0.50;99.90
12588;DHT22;6359;51.450;7.346;2023-04-26T01:39:03;-0.50;99.90
12588;DHT22;6359;51.450;7.346;2023-04-26T01:41:31;-0.40;99.90
12588;DHT22;6359;51.450;7.346;2023-04-26T01:43:58;-0.50;99.90
12588;DHT22;6359;51.450;7.346;2023-04-26T01:46:25;-0.50;99.90
12588;DHT22;6359;51.450;7.346;2023-04-26T01:48:52;-0.60;99.90
12588;DHT22;6359;51.450;7.346;2023-04-26T01:51:19;-0.60;99.90
12588;DHT22;6359;51.450;7.346;2023-04-26T01:53:46;-0.70;99.90
12588;DHT22;6359;51.450;7.346;2023-04-26T01:56:13;-0.80;99.90
12588;DHT22;6359;51.450;7.346;2023-04-26T01:58:42;-0.80;99.90
12588;DHT22;6359;51.450;7.346;2023-04-26T02:01:09;-0.80;99.90
12588;DHT22;6359;51.450;7.346;2023-04-26T02:03:36;-0.80;99.90
12588;DHT22;6359;51.450;7.346;2023-04-26T02:06:03;-0.80;99.90
12588;DHT22;6359;51.450;7.346;2023-04-26T02:08:30;-0.90;99.90
12588;DHT22;6359;51.450;7.346;2023-04-26T02:10:57;-0.90;99.90
12588;DHT22;6359;51.450;7.346;2023-04-26T02:13:24;-0.90;99.90
12588;DHT22;6359;51.450;7.346;2023-04-26T02:15:53;-1.00;99.90
12588;DHT22;6359;51.450;7.346;2023-04-26T02:18:20;-0.90;99.90
12588;DHT22;6359;51.450;7.346;2023-04-26T02:20:47;-1.00;99.90
12588;DHT22;6359;51.450;7.346;2023-04-26T02:23:14;-1.00;99.90
12588;DHT22;6359;51.450;7.346;2023-04-26T02:25:41;-1.00;99.90
12588;DHT22;6359;51.450;7.346;2023-04-26T02:28:10;-0.90;99.90
12588;DHT22;6359;51.450;7.346;2023-04-26T02:30:37;-0.90;99.90
12588;DHT22;6359;51.450;7.346;2023-04-26T02:33:05;-0.90;99.90
12588;DHT22;6359;51.450;7.346;2023-04-26T02:35:33;-0.90;99.90
12588;DHT22;6359;51.450;7.346;2023-04-26T02:38:00;-0.90;99.90
12588;DHT22;6359;51.450;7.346;2023-04-26T02:40:27;-0.90;99.90
12588;DHT22;6359;51.450;7.346;2023-04-26T02:42:54;-1.00;99.90
12588;DHT22;6359;51.450;7.346;2023-04-26T02:45:22;-1.00;99.90
12588;DHT22;6359;51.450;7.346;2023-04-26T02:47:49;-1.10;99.90
12588;DHT22;6359;51.450;7.346;2023-04-26T02:50:17;-1.10;99.90
12588;DHT22;6359;51.450;7.346;2023-04-26T02:52:44;-1.10;99.90
12588;DHT22;6359;51.450;7.346;2023-04-26T02:55:11;-1.10;99.90
12588;DHT22;6359;51.450;7.346;2023-04-26T02:57:38;-1.10;99.90
12588;DHT22;6359;51.450;7.346;2023-04-26T03:00:06;-1.20;99.90
12588;DHT22;6359;51.450;7.346;2023-04-26T03:02:33;-1.10;99.90
12588;DHT22;6359;51.450;7.346;2023-04-26T03:05:00;-1.00;99.90
12588;DHT22;6359;51.450;7.346;2023-04-26T03:07:29;-1.00;99.90
12588;DHT22;6359;51.450;7.346;2023-04-26T03:09:57;-1.00;99.90
12588;DHT22;6359;51.450;7.346;2023-04-26T03:12:25;-1.00;99.90
12588;DHT22;6359;51.450;7.346;2023-04-26T03:14:51;-1.10;99.90
12588;DHT22;6359;51.450;7.346;2023-04-26T03:17:18;-1.20;99.90
12588;DHT22;6359;51.450;7.346;2023-04-26T03:19:45;-1.20;99.90
12588;DHT22;6359;51.450;7.346;2023-04-26T03:22:12;-1.20;99.90
12588;DHT22;6359;51.450;7.346;2023-04-26T03:24:42;-1.20;99.90
12588;DHT22;6359;51.450;7.346;2023-04-26T03:27:09;-1.20;99.90
12588;DHT22;6359;51.450;7.346;2023-04-26T03:29:35;-1.20;99.90
12588;DHT22;6359;51.450;7.346;2023-04-26T03:32:03;-1.20;99.90
12588;DHT22;6359;51.450;7.346;2023-04-26T03:34:30;-1.30;99.90
12588;DHT22;6359;51.450;7.346;2023-04-26T03:36:57;-1.30;99.90
12588;DHT22;6359;51.450;7.346;2023-04-26T03:39:24;-1.40;99.90
12588;DHT22;6359;51.450;7.346;2023-04-26T03:41:52;-1.40;99.90
12588;DHT22;6359;51.450;7.346;2023-04-26T03:44:19;-1.40;99.90
12588;DHT22;6359;51.450;7.346;2023-04-26T03:46:46;-1.40;99.90
12588;DHT22;6359;51.450;7.346;2023-04-26T03:49:13;-1.40;99.90
12588;DHT22;6359;51.450;7.346;2023-04-26T03:51:40;-1.40;99.90
12588;DHT22;6359;51.450;7.346;2023-04-26T03:54:07;-1.40;99.90
12588;DHT22;6359;51.450;7.346;2023-04-26T03:56:34;-1.50;99.90
12588;DHT22;6359;51.450;7.346;2023-04-26T03:59:03;-1.40;99.90
12588;DHT22;6359;51.450;7.346;2023-04-26T04:01:29;-1.30;99.90
12588;DHT22;6359;51.450;7.346;2023-04-26T04:03:56;-1.30;99.90
12588;DHT22;6359;51.450;7.346;2023-04-26T04:06:23;-1.40;99.90
12588;DHT22;6359;51.450;7.346;2023-04-26T04:08:51;-1.40;99.90
12588;DHT22;6359;51.450;7.346;2023-04-26T04:11:17;-1.40;99.90
12588;DHT22;6359;51.450;7.346;2023-04-26T04:13:44;-1.40;99.90
12588;DHT22;6359;51.450;7.346;2023-04-26T04:16:13;-1.40;99.90
12588;DHT22;6359;51.450;7.346;2023-04-26T04:18:40;-1.50;99.90
12588;DHT22;6359;51.450;7.346;2023-04-26T04:21:06;-1.40;99.90
12588;DHT22;6359;51.450;7.346;2023-04-26T04:23:33;-1.40;99.90
12588;DHT22;6359;51.450;7.346;2023-04-26T04:26:00;-1.30;99.90
12588;DHT22;6359;51.450;7.346;2023-04-26T04:28:27;-1.30;99.90
12588;DHT22;6359;51.450;7.346;2023-04-26T04:30:54;-1.20;99.90
12588;DHT22;6359;51.450;7.346;2023-04-26T04:33:23;-1.20;99.90
12588;DHT22;6359;51.450;7.346;2023-04-26T04:35:53;-1.20;99.90
12588;DHT22;6359;51.450;7.346;2023-04-26T04:38:20;-1.00;99.90
12588;DHT22;6359;51.450;7.346;2023-04-26T04:40:47;-1.00;99.90
12588;DHT22;6359;51.450;7.346;2023-04-26T04:43:15;-1.00;99.90
12588;DHT22;6359;51.450;7.346;2023-04-26T04:45:42;-0.90;99.90
12588;DHT22;6359;51.450;7.346;2023-04-26T04:48:09;-0.80;99.90
12588;DHT22;6359;51.450;7.346;2023-04-26T04:50:37;-0.80;99.90
12588;DHT22;6359;51.450;7.346;2023-04-26T04:53:04;-0.70;99.90
12588;DHT22;6359;51.450;7.346;2023-04-26T04:55:31;-0.60;99.90
12588;DHT22;6359;51.450;7.346;2023-04-26T04:57:58;-0.50;99.90
12588;DHT22;6359;51.450;7.346;2023-04-26T05:00:25;-0.50;99.90
12588;DHT22;6359;51.450;7.346;2023-04-26T05:02:52;-0.40;99.90
12588;DHT22;6359;51.450;7.346;2023-04-26T05:05:19;-0.30;99.90
12588;DHT22;6359;51.450;7.346;2023-04-26T05:07:47;-0.20;99.90
12588;DHT22;6359;51.450;7.346;2023-04-26T05:10:14;-0.10;99.90
12588;DHT22;6359;51.450;7.346;2023-04-26T05:12:41;0.00;99.90
12588;DHT22;6359;51.450;7.346;2023-04-26T05:15:08;0.20;99.90
12588;DHT22;6359;51.450;7.346;2023-04-26T05:17:35;0.30;99.90
12588;DHT22;6359;51.450;7.346;2023-04-26T05:20:03;0.40;99.90
12588;DHT22;6359;51.450;7.346;2023-04-26T05:22:31;0.50;99.90
12588;DHT22;6359;51.450;7.346;2023-04-26T05:25:02;0.70;99.90
12588;DHT22;6359;51.450;7.346;2023-04-26T05:27:30;0.90;99.90
12588;DHT22;6359;51.450;7.346;2023-04-26T05:29:57;1.00;99.90
12588;DHT22;6359;51.450;7.346;2023-04-26T05:32:25;1.20;99.90
12588;DHT22;6359;51.450;7.346;2023-04-26T05:34:52;1.30;99.90
12588;DHT22;6359;51.450;7.346;2023-04-26T05:37:19;1.50;99.90
12588;DHT22;6359;51.450;7.346;2023-04-26T05:39:46;1.70;99.90
12588;DHT22;6359;51.450;7.346;2023-04-26T05:42:15;1.90;99.90
12588;DHT22;6359;51.450;7.346;2023-04-26T05:44:41;2.00;99.90
12588;DHT22;6359;51.450;7.346;2023-04-26T05:47:09;2.30;99.90
12588;DHT22;6359;51.450;7.346;2023-04-26T05:49:36;2.50;99.90
12588;DHT22;6359;51.450;7.346;2023-04-26T05:52:03;2.70;99.90
12588;DHT22;6359;51.450;7.346;2023-04-26T05:54:30;2.90;99.90
12588;DHT22;6359;51.450;7.346;2023-04-26T05:56:57;3.10;99.90
12588;DHT22;6359;51.450;7.346;2023-04-26T05:59:26;3.30;99.90
12588;DHT22;6359;51.450;7.346;2023-04-26T06:01:57;3.60;99.90
12588;DHT22;6359;51.450;7.346;2023-04-26T06:04:24;3.80;99.90
12588;DHT22;6359;51.450;7.346;2023-04-26T06:06:50;4.50;99.90
12588;DHT22;6359;51.450;7.346;2023-04-26T06:09:17;5.50;99.90
12588;DHT22;6359;51.450;7.346;2023-04-26T06:11:44;6.10;99.90
12588;DHT22;6359;51.450;7.346;2023-04-26T06:14:11;7.60;99.90
12588;DHT22;6359;51.450;7.346;2023-04-26T06:16:39;9.20;99.90
12588;DHT22;6359;51.450;7.346;2023-04-26T06:19:06;10.30;99.90
12588;DHT22;6359;51.450;7.346;2023-04-26T06:21:33;10.80;99.90
12588;DHT22;6359;51.450;7.346;2023-04-26T06:24:00;11.60;99.90
12588;DHT22;6359;51.450;7.346;2023-04-26T06:26:27;11.90;99.90
12588;DHT22;6359;51.450;7.346;2023-04-26T06:28:53;12.10;99.90
12588;DHT22;6359;51.450;7.346;2023-04-26T06:31:20;12.20;99.90
12588;DHT22;6359;51.450;7.346;2023-04-26T06:33:48;13.20;99.90
12588;DHT22;6359;51.450;7.346;2023-04-26T06:36:15;13.10;99.90
12588;DHT22;6359;51.450;7.346;2023-04-26T06:38:42;13.40;99.90
12588;DHT22;6359;51.450;7.346;2023-04-26T06:41:09;13.60;99.90
12588;DHT22;6359;51.450;7.346;2023-04-26T06:43:36;14.10;99.90
12588;DHT22;6359;51.450;7.346;2023-04-26T06:46:03;14.50;99.90
12588;DHT22;6359;51.450;7.346;2023-04-26T06:48:30;15.00;99.90
12588;DHT22;6359;51.450;7.346;2023-04-26T06:50:58;15.30;99.90
12588;DHT22;6359;51.450;7.346;2023-04-26T06:53:30;15.70;99.90
12588;DHT22;6359;51.450;7.346;2023-04-26T06:55:56;15.60;99.90
12588;DHT22;6359;51.450;7.346;2023-04-26T06:58:23;16.40;99.90
12588;DHT22;6359;51.450;7.346;2023-04-26T07:00:50;16.50;99.90
12588;DHT22;6359;51.450;7.346;2023-04-26T07:03:17;16.10;99.90
12588;DHT22;6359;51.450;7.346;2023-04-26T07:05:44;16.60;99.90
12588;DHT22;6359;51.450;7.346;2023-04-26T07:08:12;16.90;99.90
12588;DHT22;6359;51.450;7.346;2023-04-26T07:10:40;17.50;99.90
12588;DHT22;6359;51.450;7.346;2023-04-26T07:13:07;16.70;99.90
12588;DHT22;6359;51.450;7.346;2023-04-26T07:15:34;16.30;99.90
12588;DHT22;6359;51.450;7.346;2023-04-26T07:18:01;16.40;99.90
12588;DHT22;6359;51.450;7.346;2023-04-26T07:20:27;16.70;99.90
12588;DHT22;6359;51.450;7.346;2023-04-26T07:22:55;17.40;99.90
12588;DHT22;6359;51.450;7.346;2023-04-26T07:25:23;16.80;99.90
12588;DHT22;6359;51.450;7.346;2023-04-26T07:27:50;15.70;99.90
12588;DHT22;6359;51.450;7.346;2023-04-26T07:30:17;14.30;99.90
12588;DHT22;6359;51.450;7.346;2023-04-26T07:32:45;13.20;99.90
12588;DHT22;6359;51.450;7.346;2023-04-26T07:35:12;12.80;99.90
12588;DHT22;6359;51.450;7.346;2023-04-26T07:37:41;12.90;99.90
12588;DHT22;6359;51.450;7.346;2023-04-26T07:40:09;12.00;99.90
12588;DHT22;6359;51.450;7.346;2023-04-26T07:42:37;11.40;99.90
12588;DHT22;6359;51.450;7.346;2023-04-26T07:45:05;12.60;99.90
12588;DHT22;6359;51.450;7.346;2023-04-26T07:47:33;14.20;99.90
12588;DHT22;6359;51.450;7.346;2023-04-26T07:49:59;13.90;99.90
12588;DHT22;6359;51.450;7.346;2023-04-26T07:52:26;13.40;99.90
12588;DHT22;6359;51.450;7.346;2023-04-26T07:54:53;12.10;99.90
12588;DHT22;6359;51.450;7.346;2023-04-26T07:57:20;11.40;99.90
12588;DHT22;6359;51.450;7.346;2023-04-26T07:59:48;10.80;99.90
12588;DHT22;6359;51.450;7.346;2023-04-26T08:02:15;10.60;99.90
12588;DHT22;6359;51.450;7.346;2023-04-26T08:04:47;11.20;99.90
12588;DHT22;6359;51.450;7.346;2023-04-26T08:07:17;12.90;99.90
12588;DHT22;6359;51.450;7.346;2023-04-26T08:09:44;14.30;99.90
12588;DHT22;6359;51.450;7.346;2023-04-26T08:12:11;14.50;99.90
12588;DHT22;6359;51.450;7.346;2023-04-26T08:14:38;14.30;99.90
12588;DHT22;6359;51.450;7.346;2023-04-26T08:17:07;14.30;99.90
12588;DHT22;6359;51.450;7.346;2023-04-26T08:19:34;13.80;99.90
12588;DHT22;6359;51.450;7.346;2023-04-26T08:22:01;13.30;99.90
12588;DHT22;6359;51.450;7.346;2023-04-26T08:24:28;13.40;99.90
12588;DHT22;6359;51.450;7.346;2023-04-26T08:26:55;13.20;99.90
12588;DHT22;6359;51.450;7.346;2023-04-26T08:29:24;12.70;99.90
12588;DHT22;6359;51.450;7.346;2023-04-26T08:31:52;12.30;99.90
12588;DHT22;6359;51.450;7.346;2023-04-26T08:34:20;11.70;99.90
12588;DHT22;6359;51.450;7.346;2023-04-26T08:36:47;11.40;99.90
12588;DHT22;6359;51.450;7.346;2023-04-26T08:39:14;11.20;99.90
12588;DHT22;6359;51.450;7.346;2023-04-26T08:41:43;10.80;99.90
12588;DHT22;6359;51.450;7.346;2023-04-26T08:44:11;10.60;99.90
12588;DHT22;6359;51.450;7.346;2023-04-26T08:46:46;10.60;99.90
12588;DHT22;6359;51.450;7.346;2023-04-26T08:49:25;10.60;99.90
12588;DHT22;6359;51.450;7.346;2023-04-26T08:51:57;10.60;99.90
12588;DHT22;6359;51.450;7.346;2023-04-26T08:54:24;10.70;99.90
12588;DHT22;6359;51.450;7.346;2023-04-26T08:56:52;10.70;99.90
12588;DHT22;6359;51.450;7.346;2023-04-26T08:59:20;11.10;99.90
12588;DHT22;6359;51.450;7.346;2023-04-26T09:01:48;12.10;99.90
12588;DHT22;6359;51.450;7.346;2023-04-26T09:04:16;13.40;99.90
12588;DHT22;6359;51.450;7.346;2023-04-26T09:06:44;14.50;99.90
12588;DHT22;6359;51.450;7.346;2023-04-26T09:09:12;14.40;99.90
12588;DHT22;6359;51.450;7.346;2023-04-26T09:11:54;14.20;99.90
12588;DHT22;6359;51.450;7.346;2023-04-26T09:14:22;13.50;99.90
12588;DHT22;6359;51.450;7.346;2023-04-26T09:16:49;12.80;99.90
12588;DHT22;6359;51.450;7.346;2023-04-26T09:19:17;12.20;99.90
12588;DHT22;6359;51.450;7.346;2023-04-26T09:22:01;12.00;99.90
12588;DHT22;6359;51.450;7.346;2023-04-26T09:24:28;11.80;99.90
12588;DHT22;6359;51.450;7.346;2023-04-26T09:27:11;11.10;99.90
12588;DHT22;6359;51.450;7.346;2023-04-26T09:29:38;11.20;99.90
12588;DHT22;6359;51.450;7.346;2023-04-26T09:32:05;11.40;99.90
12588;DHT22;6359;51.450;7.346;2023-04-26T09:34:43;11.30;99.90
12588;DHT22;6359;51.450;7.346;2023-04-26T09:37:12;11.40;99.90
12588;DHT22;6359;51.450;7.346;2023-04-26T09:39:40;11.40;99.90
12588;DHT22;6359;51.450;7.346;2023-04-26T09:42:08;11.80;99.90
12588;DHT22;6359;51.450;7.346;2023-04-26T09:44:36;11.70;99.90
12588;DHT22;6359;51.450;7.346;2023-04-26T09:47:04;11.60;99.90
12588;DHT22;6359;51.450;7.346;2023-04-26T09:49:32;12.10;99.90
12588;DHT22;6359;51.450;7.346;2023-04-26T09:52:08;12.20;99.90
12588;DHT22;6359;51.450;7.346;2023-04-26T09:54:44;12.10;99.90
12588;DHT22;6359;51.450;7.346;2023-04-26T09:57:11;11.70;99.90
12588;DHT22;6359;51.450;7.346;2023-04-26T09:59:44;11.60;99.90
12588;DHT22;6359;51.450;7.346;2023-04-26T10:02:17;11.20;99.90
12588;DHT22;6359;51.450;7.346;2023-04-26T10:04:45;10.70;99.90
12588;DHT22;6359;51.450;7.346;2023-04-26T10:07:14;10.60;99.90
12588;DHT22;6359;51.450;7.346;2023-04-26T10:09:42;10.10;99.90
12588;DHT22;6359;51.450;7.346;2023-04-26T10:12:12;10.10;99.90
12588;DHT22;6359;51.450;7.346;2023-04-26T10:14:40;10.10;99.90
12588;DHT22;6359;51.450;7.346;2023-04-26T10:17:07;10.10;99.90
12588;DHT22;6359;51.450;7.346;2023-04-26T10:19:35;10.40;99.90
12588;DHT22;6359;51.450;7.346;2023-04-26T10:22:05;10.20;99.90
12588;DHT22;6359;51.450;7.346;2023-04-26T10:24:34;10.50;99.90
12588;DHT22;6359;51.450;7.346;2023-04-26T10:27:03;10.50;99.90
12588;DHT22;6359;51.450;7.346;2023-04-26T10:36:07;10.40;99.90
12588;DHT22;6359;51.450;7.346;2023-04-26T10:38:35;10.50;99.90
12588;DHT22;6359;51.450;7.346;2023-04-26T10:41:28;10.60;99.90
12588;DHT22;6359;51.450;7.346;2023-04-26T10:43:58;11.00;99.90
12588;DHT22;6359;51.450;7.346;2023-04-26T10:46:36;12.80;99.90
12588;DHT22;6359;51.450;7.346;2023-04-26T10:49:13;14.20;99.90
12588;DHT22;6359;51.450;7.346;2023-04-26T10:52:08;15.60;99.90
12588;DHT22;6359;51.450;7.346;2023-04-26T10:54:48;16.00;99.90
12588;DHT22;6359;51.450;7.346;2023-04-26T10:57:16;15.00;99.90
12588;DHT22;6359;51.450;7.346;2023-04-26T11:03:04;13.60;99.90
12588;DHT22;6359;51.450;7.346;2023-04-26T11:05:53;12.80;99.90
12588;DHT22;6359;51.450;7.346;2023-04-26T11:08:24;12.40;99.90
12588;DHT22;6359;51.450;7.346;2023-04-26T11:10:58;12.10;99.90
12588;DHT22;6359;51.450;7.346;2023-04-26T11:13:25;11.80;99.90
12588;DHT22;6359;51.450;7.346;2023-04-26T11:15:52;11.70;99.90
12588;DHT22;6359;51.450;7.346;2023-04-26T11:18:21;11.00;99.90
12588;DHT22;6359;51.450;7.346;2023-04-26T11:20:48;10.60;99.90
12588;DHT22;6359;51.450;7.346;2023-04-26T11:23:17;10.40;99.90
12588;DHT22;6359;51.450;7.346;2023-04-26T11:25:44;10.30;99.90
12588;DHT22;6359;51.450;7.346;2023-04-26T11:28:11;10.20;99.90
12588;DHT22;6359;51.450;7.346;2023-04-26T11:30:38;10.20;99.90
12588;DHT22;6359;51.450;7.346;2023-04-26T11:33:05;10.00;99.90
12588;DHT22;6359;51.450;7.346;2023-04-26T11:35:34;10.00;99.90
12588;DHT22;6359;51.450;7.346;2023-04-26T11:38:03;10.00;99.90
12588;DHT22;6359;51.450;7.346;2023-04-26T11:40:31;10.10;99.90
12588;DHT22;6359;51.450;7.346;2023-04-26T11:43:01;10.30;99.90
12588;DHT22;6359;51.450;7.346;2023-04-26T11:45:28;10.80;99.90
12588;DHT22;6359;51.450;7.346;2023-04-26T11:47:55;11.10;99.90
12588;DHT22;6359;51.450;7.346;2023-04-26T11:50:23;11.20;99.90
12588;DHT22;6359;51.450;7.346;2023-04-26T11:52:54;11.50;99.90
12588;DHT22;6359;51.450;7.346;2023-04-26T11:55:23;11.70;99.90
12588;DHT22;6359;51.450;7.346;2023-04-26T11:57:50;11.40;99.90
12588;DHT22;6359;51.450;7.346;2023-04-26T12:00:18;11.30;99.90
12588;DHT22;6359;51.450;7.346;2023-04-26T12:02:46;11.50;99.90
12588;DHT22;6359;51.450;7.346;2023-04-26T12:05:26;11.50;99.90
12588;DHT22;6359;51.450;7.346;2023-04-26T12:07:57;11.60;99.90
12588;DHT22;6359;51.450;7.346;2023-04-26T12:10:25;11.80;99.90
12588;DHT22;6359;51.450;7.346;2023-04-26T12:12:54;12.20;99.90
12588;DHT22;6359;51.450;7.346;2023-04-26T12:15:23;12.30;99.90
12588;DHT22;6359;51.450;7.346;2023-04-26T12:17:54;12.60;99.90
12588;DHT22;6359;51.450;7.346;2023-04-26T12:20:29;12.30;99.90
12588;DHT22;6359;51.450;7.346;2023-04-26T12:23:05;12.10;99.90
12588;DHT22;6359;51.450;7.346;2023-04-26T12:25:34;12.30;99.90
12588;DHT22;6359;51.450;7.346;2023-04-26T12:28:02;12.40;99.90
12588;DHT22;6359;51.450;7.346;2023-04-26T12:30:29;12.70;99.90
12588;DHT22;6359;51.450;7.346;2023-04-26T12:32:56;12.50;99.90
12588;DHT22;6359;51.450;7.346;2023-04-26T12:35:24;12.30;99.90
12588;DHT22;6359;51.450;7.346;2023-04-26T12:37:51;12.10;99.90
12588;DHT22;6359;51.450;7.346;2023-04-26T12:40:23;12.00;99.90
12588;DHT22;6359;51.450;7.346;2023-04-26T12:42:50;12.10;99.90
12588;DHT22;6359;51.450;7.346;2023-04-26T12:45:17;12.20;99.90
12588;DHT22;6359;51.450;7.346;2023-04-26T12:47:45;12.00;99.90
12588;DHT22;6359;51.450;7.346;2023-04-26T12:50:12;12.20;99.90
12588;DHT22;6359;51.450;7.346;2023-04-26T12:52:39;12.20;99.90
12588;DHT22;6359;51.450;7.346;2023-04-26T12:55:08;12.20;99.90
12588;DHT22;6359;51.450;7.346;2023-04-26T12:57:38;12.10;99.90
12588;DHT22;6359;51.450;7.346;2023-04-26T13:00:08;12.30;99.90
12588;DHT22;6359;51.450;7.346;2023-04-26T13:02:36;12.50;99.90
12588;DHT22;6359;51.450;7.346;2023-04-26T13:05:03;12.30;99.90
12588;DHT22;6359;51.450;7.346;2023-04-26T13:07:31;12.50;99.90
12588;DHT22;6359;51.450;7.346;2023-04-26T13:09:58;12.00;99.90
12588;DHT22;6359;51.450;7.346;2023-04-26T13:12:25;11.70;99.90
12588;DHT22;6359;51.450;7.346;2023-04-26T13:14:53;11.70;99.90
12588;DHT22;6359;51.450;7.346;2023-04-26T13:17:22;11.70;99.90
12588;DHT22;6359;51.450;7.346;2023-04-26T13:19:50;12.10;99.90
12588;DHT22;6359;51.450;7.346;2023-04-26T13:22:17;12.50;99.90
12588;DHT22;6359;51.450;7.346;2023-04-26T13:24:44;12.70;99.90
12588;DHT22;6359;51.450;7.346;2023-04-26T13:27:11;12.30;99.90
12588;DHT22;6359;51.450;7.346;2023-04-26T13:29:38;12.10;99.90
12588;DHT22;6359;51.450;7.346;2023-04-26T13:32:07;12.40;99.90
12588;DHT22;6359;51.450;7.346;2023-04-26T13:34:33;12.60;99.90
12588;DHT22;6359;51.450;7.346;2023-04-26T13:37:01;12.70;99.90
12588;DHT22;6359;51.450;7.346;2023-04-26T13:39:28;12.30;99.90
12588;DHT22;6359;51.450;7.346;2023-04-26T13:41:55;12.10;99.90
12588;DHT22;6359;51.450;7.346;2023-04-26T13:44:23;12.20;99.90
12588;DHT22;6359;51.450;7.346;2023-04-26T13:46:50;12.70;99.90
12588;DHT22;6359;51.450;7.346;2023-04-26T13:49:19;12.90;99.90
12588;DHT22;6359;51.450;7.346;2023-04-26T13:51:46;13.00;99.90
12588;DHT22;6359;51.450;7.346;2023-04-26T13:54:13;13.20;99.90
12588;DHT22;6359;51.450;7.346;2023-04-26T13:56:41;13.50;99.90
12588;DHT22;6359;51.450;7.346;2023-04-26T13:59:08;13.70;99.90
12588;DHT22;6359;51.450;7.346;2023-04-26T14:01:34;14.00;99.90
12588;DHT22;6359;51.450;7.346;2023-04-26T14:04:01;14.20;99.90
12588;DHT22;6359;51.450;7.346;2023-04-26T14:06:30;14.20;99.90
12588;DHT22;6359;51.450;7.346;2023-04-26T14:08:58;14.30;99.90
12588;DHT22;6359;51.450;7.346;2023-04-26T14:11:26;14.00;99.90
12588;DHT22;6359;51.450;7.346;2023-04-26T14:13:53;13.60;99.90
12588;DHT22;6359;51.450;7.346;2023-04-26T14:16:21;13.30;99.90
12588;DHT22;6359;51.450;7.346;2023-04-26T14:18:49;13.30;99.90
12588;DHT22;6359;51.450;7.346;2023-04-26T14:21:16;12.90;99.90
12588;DHT22;6359;51.450;7.346;2023-04-26T14:23:44;13.20;99.90
12588;DHT22;6359;51.450;7.346;2023-04-26T14:26:11;13.00;99.90
12588;DHT22;6359;51.450;7.346;2023-04-26T14:28:38;13.10;99.90
12588;DHT22;6359;51.450;7.346;2023-04-26T14:31:05;13.30;99.90
12588;DHT22;6359;51.450;7.346;2023-04-26T14:33:32;13.30;99.90
12588;DHT22;6359;51.450;7.346;2023-04-26T14:35:59;13.50;99.90
12588;DHT22;6359;51.450;7.346;2023-04-26T14:38:26;13.30;99.90
12588;DHT22;6359;51.450;7.346;2023-04-26T14:40:54;13.00;99.90
12588;DHT22;6359;51.450;7.346;2023-04-26T14:43:21;13.10;99.90
12588;DHT22;6359;51.450;7.346;2023-04-26T14:45:48;13.00;99.90
12588;DHT22;6359;51.450;7.346;2023-04-26T14:48:15;12.80;99.90
12588;DHT22;6359;51.450;7.346;2023-04-26T14:50:42;12.40;99.90
12588;DHT22;6359;51.450;7.346;2023-04-26T14:53:09;12.40;99.90
12588;DHT22;6359;51.450;7.346;2023-04-26T14:55:36;12.40;99.90
12588;DHT22;6359;51.450;7.346;2023-04-26T14:58:04;12.50;99.90
12588;DHT22;6359;51.450;7.346;2023-04-26T15:00:31;12.50;99.90
12588;DHT22;6359;51.450;7.346;2023-04-26T15:02:58;12.10;99.90
12588;DHT22;6359;51.450;7.346;2023-04-26T15:05:25;12.00;99.90
12588;DHT22;6359;51.450;7.346;2023-04-26T15:07:52;11.80;99.90
12588;DHT22;6359;51.450;7.346;2023-04-26T15:10:19;11.70;99.90
12588;DHT22;6359;51.450;7.346;2023-04-26T15:12:46;11.60;99.90
12588;DHT22;6359;51.450;7.346;2023-04-26T15:15:14;11.20;99.90
12588;DHT22;6359;51.450;7.346;2023-04-26T15:17:41;11.20;99.90
12588;DHT22;6359;51.450;7.346;2023-04-26T15:20:08;11.30;99.90
12588;DHT22;6359;51.450;7.346;2023-04-26T15:22:35;11.20;99.90
12588;DHT22;6359;51.450;7.346;2023-04-26T15:25:03;11.30;99.90
12588;DHT22;6359;51.450;7.346;2023-04-26T15:27:32;11.60;99.90
12588;DHT22;6359;51.450;7.346;2023-04-26T15:29:59;11.60;99.90
12588;DHT22;6359;51.450;7.346;2023-04-26T15:32:28;11.50;99.90
12588;DHT22;6359;51.450;7.346;2023-04-26T15:34:55;11.60;99.90
12588;DHT22;6359;51.450;7.346;2023-04-26T15:37:21;11.70;99.90
12588;DHT22;6359;51.450;7.346;2023-04-26T15:39:48;11.50;99.90
12588;DHT22;6359;51.450;7.346;2023-04-26T15:42:15;11.50;99.90
12588;DHT22;6359;51.450;7.346;2023-04-26T15:44:42;11.10;99.90
12588;DHT22;6359;51.450;7.346;2023-04-26T15:47:09;10.90;99.90
12588;DHT22;6359;51.450;7.346;2023-04-26T15:49:37;10.80;99.90
12588;DHT22;6359;51.450;7.346;2023-04-26T15:52:04;10.90;99.90
12588;DHT22;6359;51.450;7.346;2023-04-26T15:54:31;10.90;99.90
12588;DHT22;6359;51.450;7.346;2023-04-26T15:56:58;11.20;99.90
12588;DHT22;6359;51.450;7.346;2023-04-26T15:59:25;11.40;99.90
12588;DHT22;6359;51.450;7.346;2023-04-26T16:01:51;11.30;99.90